sensor_id;sensor_type;location;lat;lon;timestamp;P1;durP1;ratioP1;P2;durP2;ratioP2
10461;SDS011;5278;42.656;23.374;2023-03-26T00:00:24;1.17;;;1.07;;
10461;SDS011;5278;42.656;23.374;2023-03-26T00:02:51;1.10;;;1.00;;
10461;SDS011;5278;42.656;23.374;2023-03-26T00:05:18;0.93;;;0.93;;
10461;SDS011;5278;42.656;23.374;2023-03-26T00:07:45;0.83;;;0.83;;
10461;SDS011;5278;42.656;23.374;2023-03-26T00:10:12;0.80;;;0.80;;
10461;SDS011;5278;42.656;23.374;2023-03-26T00:12:40;0.83;;;0.83;;
10461;SDS011;5278;42.656;23.374;2023-03-26T00:15:07;0.53;;;0.53;;
10461;SDS011;5278;42.656;23.374;2023-03-26T00:17:36;0.80;;;0.73;;
10461;SDS011;5278;42.656;23.374;2023-03-26T00:20:03;0.73;;;0.73;;
10461;SDS011;5278;42.656;23.374;2023-03-26T00:22:32;0.70;;;0.70;;
10461;SDS011;5278;42.656;23.374;2023-03-26T00:24:59;1.20;;;1.20;;
10461;SDS011;5278;42.656;23.374;2023-03-26T00:27:25;1.20;;;1.10;;
10461;SDS011;5278;42.656;23.374;2023-03-26T00:29:53;1.00;;;0.90;;
10461;SDS011;5278;42.656;23.374;2023-03-26T00:32:21;1.10;;;1.10;;
10461;SDS011;5278;42.656;23.374;2023-03-26T00:34:53;1.63;;;1.20;;
10461;SDS011;5278;42.656;23.374;2023-03-26T00:37:20;1.20;;;1.10;;
10461;SDS011;5278;42.656;23.374;2023-03-26T00:39:50;0.83;;;0.83;;
10461;SDS011;5278;42.656;23.374;2023-03-26T00:42:18;2.23;;;1.03;;
10461;SDS011;5278;42.656;23.374;2023-03-26T00:44:45;1.47;;;1.10;;
10461;SDS011;5278;42.656;23.374;2023-03-26T00:47:15;0.60;;;0.60;;
10461;SDS011;5278;42.656;23.374;2023-03-26T00:49:42;0.73;;;0.73;;
10461;SDS011;5278;42.656;23.374;2023-03-26T00:52:12;0.83;;;0.83;;
10461;SDS011;5278;42.656;23.374;2023-03-26T00:54:42;0.90;;;0.90;;
10461;SDS011;5278;42.656;23.374;2023-03-26T00:57:10;0.70;;;0.70;;
10461;SDS011;5278;42.656;23.374;2023-03-26T00:59:38;0.70;;;0.70;;
10461;SDS011;5278;42.656;23.374;2023-03-26T01:02:06;0.60;;;0.60;;
10461;SDS011;5278;42.656;23.374;2023-03-26T01:04:36;0.70;;;0.70;;
10461;SDS011;5278;42.656;23.374;2023-03-26T01:07:08;0.80;;;0.80;;
10461;SDS011;5278;42.656;23.374;2023-03-26T01:09:40;0.87;;;0.87;;
10461;SDS011;5278;42.656;23.374;2023-03-26T01:12:10;0.87;;;0.87;;
10461;SDS011;5278;42.656;23.374;2023-03-26T01:14:41;0.70;;;0.70;;
10461;SDS011;5278;42.656;23.374;2023-03-26T01:17:09;0.83;;;0.83;;
10461;SDS011;5278;42.656;23.374;2023-03-26T01:19:39;1.00;;;0.90;;
10461;SDS011;5278;42.656;23.374;2023-03-26T01:22:15;0.60;;;0.60;;
10461;SDS011;5278;42.656;23.374;2023-03-26T01:24:45;1.07;;;0.97;;
10461;SDS011;5278;42.656;23.374;2023-03-26T01:27:22;0.80;;;0.80;;
10461;SDS011;5278;42.656;23.374;2023-03-26T01:29:57;0.80;;;0.80;;
10461;SDS011;5278;42.656;23.374;2023-03-26T01:32:40;1.10;;;1.10;;
10461;SDS011;5278;42.656;23.374;2023-03-26T01:35:20;0.90;;;0.90;;
10461;SDS011;5278;42.656;23.374;2023-03-26T01:37:57;4.13;;;1.00;;
10461;SDS011;5278;42.656;23.374;2023-03-26T01:40:36;1.10;;;1.00;;
10461;SDS011;5278;42.656;23.374;2023-03-26T01:43:12;1.20;;;1.10;;
10461;SDS011;5278;42.656;23.374;2023-03-26T01:45:47;0.93;;;0.90;;
10461;SDS011;5278;42.656;23.374;2023-03-26T01:48:15;2.67;;;1.10;;
10461;SDS011;5278;42.656;23.374;2023-03-26T01:50:43;0.93;;;0.93;;
10461;SDS011;5278;42.656;23.374;2023-03-26T01:53:12;0.93;;;0.93;;
10461;SDS011;5278;42.656;23.374;2023-03-26T01:55:44;1.00;;;1.00;;
10461;SDS011;5278;42.656;23.374;2023-03-26T01:58:18;1.33;;;1.23;;
10461;SDS011;5278;42.656;23.374;2023-03-26T02:00:54;1.20;;;1.10;;
10461;SDS011;5278;42.656;23.374;2023-03-26T02:03:29;1.30;;;1.20;;
10461;SDS011;5278;42.656;23.374;2023-03-26T02:06:02;1.13;;;1.10;;
10461;SDS011;5278;42.656;23.374;2023-03-26T02:08:36;1.83;;;1.07;;
10461;SDS011;5278;42.656;23.374;2023-03-26T02:11:08;1.00;;;1.00;;
10461;SDS011;5278;42.656;23.374;2023-03-26T02:13:38;1.30;;;1.20;;
10461;SDS011;5278;42.656;23.374;2023-03-26T02:16:06;1.37;;;1.20;;
10461;SDS011;5278;42.656;23.374;2023-03-26T02:18:38;1.40;;;1.30;;
10461;SDS011;5278;42.656;23.374;2023-03-26T02:21:06;2.50;;;1.20;;
10461;SDS011;5278;42.656;23.374;2023-03-26T02:23:36;1.67;;;1.20;;
10461;SDS011;5278;42.656;23.374;2023-03-26T02:26:05;1.37;;;1.10;;
10461;SDS011;5278;42.656;23.374;2023-03-26T02:28:35;2.47;;;1.27;;
10461;SDS011;5278;42.656;23.374;2023-03-26T02:31:03;1.30;;;1.17;;
10461;SDS011;5278;42.656;23.374;2023-03-26T02:33:34;1.53;;;1.20;;
10461;SDS011;5278;42.656;23.374;2023-03-26T02:36:01;1.30;;;1.20;;
10461;SDS011;5278;42.656;23.374;2023-03-26T02:38:28;1.50;;;1.40;;
10461;SDS011;5278;42.656;23.374;2023-03-26T02:40:59;1.87;;;1.30;;
10461;SDS011;5278;42.656;23.374;2023-03-26T02:43:27;1.57;;;1.30;;
10461;SDS011;5278;42.656;23.374;2023-03-26T02:45:54;1.47;;;1.37;;
10461;SDS011;5278;42.656;23.374;2023-03-26T02:48:23;1.33;;;1.23;;
10461;SDS011;5278;42.656;23.374;2023-03-26T02:50:50;1.97;;;1.50;;
10461;SDS011;5278;42.656;23.374;2023-03-26T02:53:18;4.03;;;1.20;;
10461;SDS011;5278;42.656;23.374;2023-03-26T02:55:45;1.50;;;1.40;;
10461;SDS011;5278;42.656;23.374;2023-03-26T02:58:13;1.87;;;1.50;;
10461;SDS011;5278;42.656;23.374;2023-03-26T03:00:43;1.50;;;1.40;;
10461;SDS011;5278;42.656;23.374;2023-03-26T03:03:11;1.80;;;1.43;;
10461;SDS011;5278;42.656;23.374;2023-03-26T03:05:38;1.50;;;1.40;;
10461;SDS011;5278;42.656;23.374;2023-03-26T03:08:07;1.50;;;1.40;;
10461;SDS011;5278;42.656;23.374;2023-03-26T03:10:34;1.50;;;1.40;;
10461;SDS011;5278;42.656;23.374;2023-03-26T03:13:02;1.60;;;1.20;;
10461;SDS011;5278;42.656;23.374;2023-03-26T03:15:31;1.50;;;1.40;;
10461;SDS011;5278;42.656;23.374;2023-03-26T03:18:00;1.40;;;1.30;;
10461;SDS011;5278;42.656;23.374;2023-03-26T03:20:27;1.43;;;1.33;;
10461;SDS011;5278;42.656;23.374;2023-03-26T03:22:54;1.50;;;1.40;;
10461;SDS011;5278;42.656;23.374;2023-03-26T03:25:21;1.80;;;1.40;;
10461;SDS011;5278;42.656;23.374;2023-03-26T03:27:50;1.77;;;1.67;;
10461;SDS011;5278;42.656;23.374;2023-03-26T03:30:18;1.97;;;1.43;;
10461;SDS011;5278;42.656;23.374;2023-03-26T03:32:45;1.67;;;1.57;;
10461;SDS011;5278;42.656;23.374;2023-03-26T03:35:13;2.23;;;1.60;;
10461;SDS011;5278;42.656;23.374;2023-03-26T03:37:40;1.73;;;1.63;;
10461;SDS011;5278;42.656;23.374;2023-03-26T03:40:08;2.20;;;2.00;;
10461;SDS011;5278;42.656;23.374;2023-03-26T03:42:36;2.57;;;1.90;;
10461;SDS011;5278;42.656;23.374;2023-03-26T03:45:03;2.33;;;2.13;;
10461;SDS011;5278;42.656;23.374;2023-03-26T03:47:31;2.40;;;2.20;;
10461;SDS011;5278;42.656;23.374;2023-03-26T03:49:58;2.53;;;2.33;;
10461;SDS011;5278;42.656;23.374;2023-03-26T03:52:27;2.73;;;2.50;;
10461;SDS011;5278;42.656;23.374;2023-03-26T03:54:54;2.83;;;2.27;;
10461;SDS011;5278;42.656;23.374;2023-03-26T03:57:24;2.90;;;2.37;;
10461;SDS011;5278;42.656;23.374;2023-03-26T03:59:52;2.30;;;2.10;;
10461;SDS011;5278;42.656;23.374;2023-03-26T04:02:22;2.43;;;2.23;;
10461;SDS011;5278;42.656;23.374;2023-03-26T04:04:54;2.40;;;2.20;;
10461;SDS011;5278;42.656;23.374;2023-03-26T04:07:22;2.23;;;2.03;;
10461;SDS011;5278;42.656;23.374;2023-03-26T04:09:51;3.27;;;2.97;;
10461;SDS011;5278;42.656;23.374;2023-03-26T04:12:18;2.87;;;2.67;;
10461;SDS011;5278;42.656;23.374;2023-03-26T04:14:45;2.63;;;2.40;;
10461;SDS011;5278;42.656;23.374;2023-03-26T04:17:12;2.90;;;2.40;;
10461;SDS011;5278;42.656;23.374;2023-03-26T04:19:39;2.90;;;2.70;;
10461;SDS011;5278;42.656;23.374;2023-03-26T04:22:08;2.80;;;2.60;;
10461;SDS011;5278;42.656;23.374;2023-03-26T04:24:36;3.10;;;2.80;;
10461;SDS011;5278;42.656;23.374;2023-03-26T04:27:05;2.93;;;2.70;;
10461;SDS011;5278;42.656;23.374;2023-03-26T04:29:36;3.03;;;2.63;;
10461;SDS011;5278;42.656;23.374;2023-03-26T04:32:08;3.20;;;2.90;;
10461;SDS011;5278;42.656;23.374;2023-03-26T04:34:38;2.40;;;2.20;;
10461;SDS011;5278;42.656;23.374;2023-03-26T04:39:43;3.43;;;3.10;;
10461;SDS011;5278;42.656;23.374;2023-03-26T04:42:11;4.30;;;3.33;;
10461;SDS011;5278;42.656;23.374;2023-03-26T04:44:38;4.53;;;3.40;;
10461;SDS011;5278;42.656;23.374;2023-03-26T04:47:06;3.90;;;3.60;;
10461;SDS011;5278;42.656;23.374;2023-03-26T04:49:33;3.50;;;3.20;;
10461;SDS011;5278;42.656;23.374;2023-03-26T04:52:00;3.30;;;3.00;;
10461;SDS011;5278;42.656;23.374;2023-03-26T04:54:27;3.43;;;3.13;;
10461;SDS011;5278;42.656;23.374;2023-03-26T04:56:54;3.67;;;3.33;;
10461;SDS011;5278;42.656;23.374;2023-03-26T04:59:26;3.73;;;3.40;;
10461;SDS011;5278;42.656;23.374;2023-03-26T05:01:59;3.83;;;3.50;;
10461;SDS011;5278;42.656;23.374;2023-03-26T05:04:27;3.70;;;3.23;;
10461;SDS011;5278;42.656;23.374;2023-03-26T05:06:58;3.47;;;3.17;;
10461;SDS011;5278;42.656;23.374;2023-03-26T05:09:26;4.17;;;3.50;;
10461;SDS011;5278;42.656;23.374;2023-03-26T05:11:54;4.77;;;3.63;;
10461;SDS011;5278;42.656;23.374;2023-03-26T05:14:21;4.00;;;3.60;;
10461;SDS011;5278;42.656;23.374;2023-03-26T05:16:49;3.83;;;3.40;;
10461;SDS011;5278;42.656;23.374;2023-03-26T05:19:18;4.20;;;3.80;;
10461;SDS011;5278;42.656;23.374;2023-03-26T05:21:45;3.87;;;3.47;;
10461;SDS011;5278;42.656;23.374;2023-03-26T05:24:12;4.03;;;3.73;;
10461;SDS011;5278;42.656;23.374;2023-03-26T05:26:40;4.00;;;3.70;;
10461;SDS011;5278;42.656;23.374;2023-03-26T05:29:07;4.03;;;3.63;;
10461;SDS011;5278;42.656;23.374;2023-03-26T05:31:34;3.63;;;3.33;;
10461;SDS011;5278;42.656;23.374;2023-03-26T05:34:03;5.67;;;4.30;;
10461;SDS011;5278;42.656;23.374;2023-03-26T05:36:30;3.90;;;3.60;;
10461;SDS011;5278;42.656;23.374;2023-03-26T05:38:58;4.60;;;3.87;;
10461;SDS011;5278;42.656;23.374;2023-03-26T05:41:25;4.87;;;4.47;;
10461;SDS011;5278;42.656;23.374;2023-03-26T05:43:52;4.50;;;4.10;;
10461;SDS011;5278;42.656;23.374;2023-03-26T05:46:19;4.70;;;4.30;;
10461;SDS011;5278;42.656;23.374;2023-03-26T05:48:47;4.70;;;4.30;;
10461;SDS011;5278;42.656;23.374;2023-03-26T05:51:15;4.53;;;4.13;;
10461;SDS011;5278;42.656;23.374;2023-03-26T05:53:42;4.47;;;4.07;;
10461;SDS011;5278;42.656;23.374;2023-03-26T05:56:09;4.27;;;3.87;;
10461;SDS011;5278;42.656;23.374;2023-03-26T05:58:36;4.33;;;3.93;;
10461;SDS011;5278;42.656;23.374;2023-03-26T06:01:05;4.90;;;4.47;;
10461;SDS011;5278;42.656;23.374;2023-03-26T06:03:34;4.70;;;4.20;;
10461;SDS011;5278;42.656;23.374;2023-03-26T06:06:05;4.90;;;4.50;;
10461;SDS011;5278;42.656;23.374;2023-03-26T06:08:36;5.10;;;4.60;;
10461;SDS011;5278;42.656;23.374;2023-03-26T06:11:04;3.93;;;3.63;;
10461;SDS011;5278;42.656;23.374;2023-03-26T06:13:32;4.40;;;4.00;;
10461;SDS011;5278;42.656;23.374;2023-03-26T06:15:59;4.20;;;3.80;;
10461;SDS011;5278;42.656;23.374;2023-03-26T06:18:26;4.17;;;3.87;;
10461;SDS011;5278;42.656;23.374;2023-03-26T06:20:53;4.67;;;4.37;;
10461;SDS011;5278;42.656;23.374;2023-03-26T06:23:20;4.47;;;3.80;;
10461;SDS011;5278;42.656;23.374;2023-03-26T06:25:48;4.80;;;4.40;;
10461;SDS011;5278;42.656;23.374;2023-03-26T06:28:15;4.30;;;3.90;;
10461;SDS011;5278;42.656;23.374;2023-03-26T06:30:43;5.17;;;4.17;;
10461;SDS011;5278;42.656;23.374;2023-03-26T06:33:10;4.83;;;4.43;;
10461;SDS011;5278;42.656;23.374;2023-03-26T06:35:38;5.03;;;4.40;;
10461;SDS011;5278;42.656;23.374;2023-03-26T06:38:05;4.57;;;4.20;;
10461;SDS011;5278;42.656;23.374;2023-03-26T06:40:32;4.80;;;4.40;;
10461;SDS011;5278;42.656;23.374;2023-03-26T06:43:01;4.77;;;4.20;;
10461;SDS011;5278;42.656;23.374;2023-03-26T06:45:28;6.93;;;4.20;;
10461;SDS011;5278;42.656;23.374;2023-03-26T06:47:55;5.00;;;3.87;;
10461;SDS011;5278;42.656;23.374;2023-03-26T06:50:22;4.80;;;4.03;;
10461;SDS011;5278;42.656;23.374;2023-03-26T06:52:52;3.60;;;3.30;;
10461;SDS011;5278;42.656;23.374;2023-03-26T06:55:19;4.17;;;3.77;;
10461;SDS011;5278;42.656;23.374;2023-03-26T06:57:47;4.30;;;4.00;;
10461;SDS011;5278;42.656;23.374;2023-03-26T07:00:18;4.47;;;4.07;;
10461;SDS011;5278;42.656;23.374;2023-03-26T07:02:45;4.27;;;3.87;;
10461;SDS011;5278;42.656;23.374;2023-03-26T07:05:12;7.30;;;4.63;;
10461;SDS011;5278;42.656;23.374;2023-03-26T07:07:39;4.43;;;4.03;;
10461;SDS011;5278;42.656;23.374;2023-03-26T07:10:09;5.17;;;4.00;;
10461;SDS011;5278;42.656;23.374;2023-03-26T07:12:37;4.10;;;3.70;;
10461;SDS011;5278;42.656;23.374;2023-03-26T07:15:04;4.00;;;3.70;;
10461;SDS011;5278;42.656;23.374;2023-03-26T07:17:33;4.30;;;3.90;;
10461;SDS011;5278;42.656;23.374;2023-03-26T07:20:00;4.27;;;3.73;;
10461;SDS011;5278;42.656;23.374;2023-03-26T07:22:28;3.70;;;3.40;;
10461;SDS011;5278;42.656;23.374;2023-03-26T07:24:55;4.20;;;3.90;;
10461;SDS011;5278;42.656;23.374;2023-03-26T07:27:26;4.07;;;3.67;;
10461;SDS011;5278;42.656;23.374;2023-03-26T07:30:08;3.73;;;3.43;;
10461;SDS011;5278;42.656;23.374;2023-03-26T07:32:43;4.73;;;3.80;;
10461;SDS011;5278;42.656;23.374;2023-03-26T07:35:18;3.70;;;3.40;;
10461;SDS011;5278;42.656;23.374;2023-03-26T07:37:52;3.83;;;3.33;;
10461;SDS011;5278;42.656;23.374;2023-03-26T07:40:36;3.93;;;3.63;;
10461;SDS011;5278;42.656;23.374;2023-03-26T07:43:14;3.60;;;3.30;;
10461;SDS011;5278;42.656;23.374;2023-03-26T07:45:52;3.90;;;3.60;;
10461;SDS011;5278;42.656;23.374;2023-03-26T07:48:24;4.47;;;3.67;;
10461;SDS011;5278;42.656;23.374;2023-03-26T07:50:53;4.07;;;3.67;;
10461;SDS011;5278;42.656;23.374;2023-03-26T07:53:21;3.63;;;3.33;;
10461;SDS011;5278;42.656;23.374;2023-03-26T07:55:49;3.80;;;3.47;;
10461;SDS011;5278;42.656;23.374;2023-03-26T07:58:26;4.20;;;3.90;;
10461;SDS011;5278;42.656;23.374;2023-03-26T08:01:05;4.53;;;3.33;;
10461;SDS011;5278;42.656;23.374;2023-03-26T08:06:45;3.90;;;3.60;;
10461;SDS011;5278;42.656;23.374;2023-03-26T08:09:19;3.87;;;3.57;;
10461;SDS011;5278;42.656;23.374;2023-03-26T08:11:56;3.90;;;3.60;;
10461;SDS011;5278;42.656;23.374;2023-03-26T08:14:30;3.70;;;3.40;;
10461;SDS011;5278;42.656;23.374;2023-03-26T08:17:07;5.10;;;3.07;;
10461;SDS011;5278;42.656;23.374;2023-03-26T08:19:43;3.37;;;3.17;;
10461;SDS011;5278;42.656;23.374;2023-03-26T08:22:18;4.13;;;3.73;;
10461;SDS011;5278;42.656;23.374;2023-03-26T08:27:42;4.53;;;3.50;;
10461;SDS011;5278;42.656;23.374;2023-03-26T08:30:26;3.63;;;3.30;;
10461;SDS011;5278;42.656;23.374;2023-03-26T08:32:54;4.30;;;3.43;;
10461;SDS011;5278;42.656;23.374;2023-03-26T08:35:22;3.30;;;3.00;;
10461;SDS011;5278;42.656;23.374;2023-03-26T08:37:52;3.30;;;2.60;;
10461;SDS011;5278;42.656;23.374;2023-03-26T08:40:23;2.73;;;2.53;;
10461;SDS011;5278;42.656;23.374;2023-03-26T08:43:27;3.30;;;3.00;;
10461;SDS011;5278;42.656;23.374;2023-03-26T08:46:27;4.03;;;3.30;;
10461;SDS011;5278;42.656;23.374;2023-03-26T08:49:15;3.23;;;3.03;;
10461;SDS011;5278;42.656;23.374;2023-03-26T08:55:08;2.77;;;2.57;;
10461;SDS011;5278;42.656;23.374;2023-03-26T09:00:55;3.37;;;3.00;;
10461;SDS011;5278;42.656;23.374;2023-03-26T09:03:37;3.20;;;2.93;;
10461;SDS011;5278;42.656;23.374;2023-03-26T09:06:23;4.47;;;4.17;;
10461;SDS011;5278;42.656;23.374;2023-03-26T09:09:08;5.97;;;5.37;;
10461;SDS011;5278;42.656;23.374;2023-03-26T09:12:10;3.03;;;2.73;;
10461;SDS011;5278;42.656;23.374;2023-03-26T09:15:15;3.43;;;3.00;;
10461;SDS011;5278;42.656;23.374;2023-03-26T09:30:28;3.60;;;2.17;;
10461;SDS011;5278;42.656;23.374;2023-03-26T09:39:22;2.25;;;2.05;;
10461;SDS011;5278;42.656;23.374;2023-03-26T09:42:06;3.00;;;2.17;;
10461;SDS011;5278;42.656;23.374;2023-03-26T09:47:53;2.63;;;2.42;;
10461;SDS011;5278;42.656;23.374;2023-03-26T09:50:34;4.18;;;3.22;;
10461;SDS011;5278;42.656;23.374;2023-03-26T09:56:10;4.55;;;3.35;;
10461;SDS011;5278;42.656;23.374;2023-03-26T09:59:00;3.03;;;2.25;;
10461;SDS011;5278;42.656;23.374;2023-03-26T10:01:51;3.25;;;2.72;;
10461;SDS011;5278;42.656;23.374;2023-03-26T10:07:38;1.83;;;1.73;;
10461;SDS011;5278;42.656;23.374;2023-03-26T10:10:24;2.10;;;1.90;;
10461;SDS011;5278;42.656;23.374;2023-03-26T10:12:58;1.83;;;1.73;;
10461;SDS011;5278;42.656;23.374;2023-03-26T10:15:48;2.20;;;1.73;;
10461;SDS011;5278;42.656;23.374;2023-03-26T10:18:31;8.48;;;7.68;;
10461;SDS011;5278;42.656;23.374;2023-03-26T10:21:06;3.72;;;2.90;;
10461;SDS011;5278;42.656;23.374;2023-03-26T10:23:45;2.30;;;2.10;;
10461;SDS011;5278;42.656;23.374;2023-03-26T10:29:24;2.33;;;2.13;;
10461;SDS011;5278;42.656;23.374;2023-03-26T10:32:12;2.97;;;2.28;;
10461;SDS011;5278;42.656;23.374;2023-03-26T10:34:51;1.87;;;1.73;;
10461;SDS011;5278;42.656;23.374;2023-03-26T10:37:31;1.73;;;1.63;;
10461;SDS011;5278;42.656;23.374;2023-03-26T10:40:15;2.30;;;2.00;;
10461;SDS011;5278;42.656;23.374;2023-03-26T10:45:55;1.80;;;1.70;;
10461;SDS011;5278;42.656;23.374;2023-03-26T10:48:35;1.27;;;1.20;;
10461;SDS011;5278;42.656;23.374;2023-03-26T10:51:20;2.10;;;1.90;;
10461;SDS011;5278;42.656;23.374;2023-03-26T10:54:01;2.25;;;1.50;;
10461;SDS011;5278;42.656;23.374;2023-03-26T10:56:38;2.10;;;1.90;;
10461;SDS011;5278;42.656;23.374;2023-03-26T10:59:11;2.53;;;1.67;;
10461;SDS011;5278;42.656;23.374;2023-03-26T11:01:40;1.92;;;1.67;;
10461;SDS011;5278;42.656;23.374;2023-03-26T11:04:20;1.75;;;1.40;;
10461;SDS011;5278;42.656;23.374;2023-03-26T11:06:57;1.70;;;1.60;;
10461;SDS011;5278;42.656;23.374;2023-03-26T11:09:34;2.13;;;1.50;;
10461;SDS011;5278;42.656;23.374;2023-03-26T11:12:10;1.60;;;1.50;;
10461;SDS011;5278;42.656;23.374;2023-03-26T11:14:45;3.17;;;1.73;;
10461;SDS011;5278;42.656;23.374;2023-03-26T11:17:19;1.87;;;1.43;;
10461;SDS011;5278;42.656;23.374;2023-03-26T11:19:57;1.90;;;1.70;;
10461;SDS011;5278;42.656;23.374;2023-03-26T11:22:33;1.40;;;1.23;;
10461;SDS011;5278;42.656;23.374;2023-03-26T11:25:25;1.35;;;1.25;;
10461;SDS011;5278;42.656;23.374;2023-03-26T11:28:03;1.47;;;1.37;;
10461;SDS011;5278;42.656;23.374;2023-03-26T11:30:42;1.30;;;1.20;;
10461;SDS011;5278;42.656;23.374;2023-03-26T11:33:15;1.40;;;1.30;;
10461;SDS011;5278;42.656;23.374;2023-03-26T11:35:45;1.43;;;1.33;;
10461;SDS011;5278;42.656;23.374;2023-03-26T11:38:19;1.43;;;1.30;;
10461;SDS011;5278;42.656;23.374;2023-03-26T11:40:51;1.40;;;1.30;;
10461;SDS011;5278;42.656;23.374;2023-03-26T11:43:21;1.83;;;1.40;;
10461;SDS011;5278;42.656;23.374;2023-03-26T11:45:51;2.00;;;1.27;;
10461;SDS011;5278;42.656;23.374;2023-03-26T11:48:20;3.23;;;1.17;;
10461;SDS011;5278;42.656;23.374;2023-03-26T11:50:52;3.30;;;1.50;;
10461;SDS011;5278;42.656;23.374;2023-03-26T11:53:27;2.77;;;1.43;;
10461;SDS011;5278;42.656;23.374;2023-03-26T11:55:59;1.37;;;1.27;;
10461;SDS011;5278;42.656;23.374;2023-03-26T11:58:31;1.50;;;1.40;;
10461;SDS011;5278;42.656;23.374;2023-03-26T12:01:02;1.40;;;1.30;;
10461;SDS011;5278;42.656;23.374;2023-03-26T12:03:30;1.80;;;1.70;;
10461;SDS011;5278;42.656;23.374;2023-03-26T12:05:58;1.83;;;1.10;;
10461;SDS011;5278;42.656;23.374;2023-03-26T12:08:29;1.87;;;1.53;;
10461;SDS011;5278;42.656;23.374;2023-03-26T12:11:03;2.13;;;1.90;;
10461;SDS011;5278;42.656;23.374;2023-03-26T12:13:36;2.07;;;1.13;;
10461;SDS011;5278;42.656;23.374;2023-03-26T12:16:09;2.03;;;1.60;;
10461;SDS011;5278;42.656;23.374;2023-03-26T12:18:40;1.53;;;1.43;;
10461;SDS011;5278;42.656;23.374;2023-03-26T12:21:09;2.17;;;1.40;;
10461;SDS011;5278;42.656;23.374;2023-03-26T12:23:41;1.30;;;1.20;;
10461;SDS011;5278;42.656;23.374;2023-03-26T12:26:12;1.53;;;1.10;;
10461;SDS011;5278;42.656;23.374;2023-03-26T12:28:45;1.27;;;1.17;;
10461;SDS011;5278;42.656;23.374;2023-03-26T12:31:13;1.87;;;1.20;;
10461;SDS011;5278;42.656;23.374;2023-03-26T12:33:43;1.40;;;1.30;;
10461;SDS011;5278;42.656;23.374;2023-03-26T12:36:21;1.37;;;1.27;;
10461;SDS011;5278;42.656;23.374;2023-03-26T12:38:55;1.23;;;1.13;;
10461;SDS011;5278;42.656;23.374;2023-03-26T12:41:32;1.30;;;1.20;;
10461;SDS011;5278;42.656;23.374;2023-03-26T12:44:13;1.40;;;1.30;;
10461;SDS011;5278;42.656;23.374;2023-03-26T12:46:47;2.73;;;1.13;;
10461;SDS011;5278;42.656;23.374;2023-03-26T12:49:18;2.40;;;1.27;;
10461;SDS011;5278;42.656;23.374;2023-03-26T12:51:47;1.10;;;1.00;;
10461;SDS011;5278;42.656;23.374;2023-03-26T12:57:17;1.63;;;1.10;;
10461;SDS011;5278;42.656;23.374;2023-03-26T12:59:48;0.97;;;0.90;;
10461;SDS011;5278;42.656;23.374;2023-03-26T13:02:47;1.10;;;1.00;;
10461;SDS011;5278;42.656;23.374;2023-03-26T13:05:37;0.70;;;0.70;;
10461;SDS011;5278;42.656;23.374;2023-03-26T13:11:15;1.40;;;1.10;;
10461;SDS011;5278;42.656;23.374;2023-03-26T13:13:54;1.60;;;1.20;;
10461;SDS011;5278;42.656;23.374;2023-03-26T13:16:34;1.83;;;1.13;;
10461;SDS011;5278;42.656;23.374;2023-03-26T13:19:05;1.20;;;1.07;;
10461;SDS011;5278;42.656;23.374;2023-03-26T13:21:40;0.90;;;0.90;;
10461;SDS011;5278;42.656;23.374;2023-03-26T13:24:20;0.70;;;0.70;;
10461;SDS011;5278;42.656;23.374;2023-03-26T13:27:02;0.90;;;0.90;;
10461;SDS011;5278;42.656;23.374;2023-03-26T13:29:39;0.93;;;0.90;;
10461;SDS011;5278;42.656;23.374;2023-03-26T13:32:21;1.10;;;1.00;;
10461;SDS011;5278;42.656;23.374;2023-03-26T13:35:00;1.23;;;1.13;;
10461;SDS011;5278;42.656;23.374;2023-03-26T13:37:40;1.10;;;1.00;;
10461;SDS011;5278;42.656;23.374;2023-03-26T13:40:16;2.10;;;1.20;;
10461;SDS011;5278;42.656;23.374;2023-03-26T13:42:56;1.50;;;1.20;;
10461;SDS011;5278;42.656;23.374;2023-03-26T13:45:36;1.33;;;1.20;;
10461;SDS011;5278;42.656;23.374;2023-03-26T13:48:18;0.97;;;0.97;;
10461;SDS011;5278;42.656;23.374;2023-03-26T13:50:50;3.33;;;1.40;;
10461;SDS011;5278;42.656;23.374;2023-03-26T13:53:24;1.30;;;1.20;;
10461;SDS011;5278;42.656;23.374;2023-03-26T13:55:55;3.50;;;1.13;;
10461;SDS011;5278;42.656;23.374;2023-03-26T13:58:28;1.80;;;1.20;;
10461;SDS011;5278;42.656;23.374;2023-03-26T14:01:02;1.60;;;1.00;;
10461;SDS011;5278;42.656;23.374;2023-03-26T14:03:35;2.00;;;1.10;;
10461;SDS011;5278;42.656;23.374;2023-03-26T14:06:10;0.70;;;0.70;;
10461;SDS011;5278;42.656;23.374;2023-03-26T14:08:42;3.20;;;1.00;;
10461;SDS011;5278;42.656;23.374;2023-03-26T14:11:14;1.33;;;0.87;;
10461;SDS011;5278;42.656;23.374;2023-03-26T14:13:48;1.63;;;1.10;;
10461;SDS011;5278;42.656;23.374;2023-03-26T14:16:20;0.97;;;0.90;;
10461;SDS011;5278;42.656;23.374;2023-03-26T14:18:53;1.20;;;0.90;;
10461;SDS011;5278;42.656;23.374;2023-03-26T14:21:46;1.03;;;0.97;;
10461;SDS011;5278;42.656;23.374;2023-03-26T14:24:32;0.90;;;0.90;;
10461;SDS011;5278;42.656;23.374;2023-03-26T14:27:26;1.07;;;1.00;;
10461;SDS011;5278;42.656;23.374;2023-03-26T14:30:27;1.57;;;1.10;;
10461;SDS011;5278;42.656;23.374;2023-03-26T14:33:12;4.37;;;1.00;;
10461;SDS011;5278;42.656;23.374;2023-03-26T14:35:56;0.97;;;0.90;;
10461;SDS011;5278;42.656;23.374;2023-03-26T14:38:37;1.27;;;1.10;;
10461;SDS011;5278;42.656;23.374;2023-03-26T14:41:23;0.97;;;0.87;;
10461;SDS011;5278;42.656;23.374;2023-03-26T14:44:07;2.80;;;1.00;;
10461;SDS011;5278;42.656;23.374;2023-03-26T14:46:59;1.00;;;1.00;;
10461;SDS011;5278;42.656;23.374;2023-03-26T14:49:39;1.30;;;1.20;;
10461;SDS011;5278;42.656;23.374;2023-03-26T14:52:30;1.10;;;0.93;;
10461;SDS011;5278;42.656;23.374;2023-03-26T14:55:12;4.13;;;1.20;;
10461;SDS011;5278;42.656;23.374;2023-03-26T14:57:48;1.57;;;1.47;;
10461;SDS011;5278;42.656;23.374;2023-03-26T15:07:15;2.60;;;1.20;;
10461;SDS011;5278;42.656;23.374;2023-03-26T15:10:05;1.20;;;1.13;;
10461;SDS011;5278;42.656;23.374;2023-03-26T15:12:45;1.10;;;1.00;;
10461;SDS011;5278;42.656;23.374;2023-03-26T15:15:39;1.20;;;1.03;;
10461;SDS011;5278;42.656;23.374;2023-03-26T15:24:57;0.90;;;0.90;;
10461;SDS011;5278;42.656;23.374;2023-03-26T15:31:05;2.07;;;1.47;;
10461;SDS011;5278;42.656;23.374;2023-03-26T15:39:53;2.53;;;1.30;;
10461;SDS011;5278;42.656;23.374;2023-03-26T15:42:46;1.40;;;1.30;;
10461;SDS011;5278;42.656;23.374;2023-03-26T15:45:21;1.47;;;1.30;;
10461;SDS011;5278;42.656;23.374;2023-03-26T15:50:51;4.10;;;1.30;;
10461;SDS011;5278;42.656;23.374;2023-03-26T15:53:30;1.20;;;1.10;;
10461;SDS011;5278;42.656;23.374;2023-03-26T15:56:08;2.60;;;1.30;;
10461;SDS011;5278;42.656;23.374;2023-03-26T15:58:49;3.30;;;1.07;;
10461;SDS011;5278;42.656;23.374;2023-03-26T16:01:30;2.03;;;1.50;;
10461;SDS011;5278;42.656;23.374;2023-03-26T16:04:14;2.10;;;1.40;;
10461;SDS011;5278;42.656;23.374;2023-03-26T16:06:50;1.50;;;1.40;;
10461;SDS011;5278;42.656;23.374;2023-03-26T16:12:31;1.73;;;1.37;;
10461;SDS011;5278;42.656;23.374;2023-03-26T16:15:18;1.50;;;1.33;;
10461;SDS011;5278;42.656;23.374;2023-03-26T16:20:53;1.10;;;1.10;;
10461;SDS011;5278;42.656;23.374;2023-03-26T16:23:29;2.57;;;1.40;;
10461;SDS011;5278;42.656;23.374;2023-03-26T16:26:13;1.53;;;1.43;;
10461;SDS011;5278;42.656;23.374;2023-03-26T16:29:03;1.40;;;1.30;;
10461;SDS011;5278;42.656;23.374;2023-03-26T16:34:53;1.70;;;1.20;;
10461;SDS011;5278;42.656;23.374;2023-03-26T16:37:32;3.47;;;1.57;;
10461;SDS011;5278;42.656;23.374;2023-03-26T16:42:54;1.70;;;1.43;;
10461;SDS011;5278;42.656;23.374;2023-03-26T16:45:33;1.67;;;1.50;;
10461;SDS011;5278;42.656;23.374;2023-03-26T16:48:07;2.47;;;1.63;;
10461;SDS011;5278;42.656;23.374;2023-03-26T16:50:44;2.80;;;1.80;;
10461;SDS011;5278;42.656;23.374;2023-03-26T16:53:22;3.13;;;1.93;;
10461;SDS011;5278;42.656;23.374;2023-03-26T16:55:55;2.97;;;2.37;;
10461;SDS011;5278;42.656;23.374;2023-03-26T16:58:29;6.03;;;2.40;;